sensor_id;sensor_type;location;lat;lon;timestamp;temperature;humidity
12604;DHT22;6367;52.508;13.284;2023-06-24T00:01:00;21.30;99.90
12604;DHT22;6367;52.508;13.284;2023-06-24T00:03:26;21.20;99.90
12604;DHT22;6367;52.508;13.284;2023-06-24T00:05:52;21.20;99.90
12604;DHT22;6367;52.508;13.284;2023-06-24T00:08:19;21.20;99.90
12604;DHT22;6367;52.508;13.284;2023-06-24T00:10:47;21.20;99.90
12604;DHT22;6367;52.508;13.284;2023-06-24T00:13:13;21.20;99.90
12604;DHT22;6367;52.508;13.284;2023-06-24T00:15:40;21.20;99.90
12604;DHT22;6367;52.508;13.284;2023-06-24T00:18:11;21.20;99.90
12604;DHT22;6367;52.508;13.284;2023-06-24T00:20:37;21.10;99.90
12604;DHT22;6367;52.508;13.284;2023-06-24T00:23:03;21.20;99.90
12604;DHT22;6367;52.508;13.284;2023-06-24T00:25:30;21.20;99.90
12604;DHT22;6367;52.508;13.284;2023-06-24T00:27:55;21.20;99.90
12604;DHT22;6367;52.508;13.284;2023-06-24T00:30:22;21.20;99.90
12604;DHT22;6367;52.508;13.284;2023-06-24T00:32:48;21.20;99.90
12604;DHT22;6367;52.508;13.284;2023-06-24T00:35:14;21.20;99.90
12604;DHT22;6367;52.508;13.284;2023-06-24T00:37:40;21.20;99.90
12604;DHT22;6367;52.508;13.284;2023-06-24T00:40:08;21.20;99.90
12604;DHT22;6367;52.508;13.284;2023-06-24T00:42:40;21.20;99.90
12604;DHT22;6367;52.508;13.284;2023-06-24T00:45:08;21.20;99.90
12604;DHT22;6367;52.508;13.284;2023-06-24T00:47:34;21.20;99.90
12604;DHT22;6367;52.508;13.284;2023-06-24T00:49:59;21.20;99.90
12604;DHT22;6367;52.508;13.284;2023-06-24T00:52:25;21.10;99.90
12604;DHT22;6367;52.508;13.284;2023-06-24T00:54:51;21.10;99.90
12604;DHT22;6367;52.508;13.284;2023-06-24T00:57:17;21.00;99.90
12604;DHT22;6367;52.508;13.284;2023-06-24T00:59:45;21.10;99.90
12604;DHT22;6367;52.508;13.284;2023-06-24T01:02:12;21.10;99.90
12604;DHT22;6367;52.508;13.284;2023-06-24T01:04:38;21.10;99.90
12604;DHT22;6367;52.508;13.284;2023-06-24T01:07:05;21.00;99.90
12604;DHT22;6367;52.508;13.284;2023-06-24T01:09:31;21.00;99.90
12604;DHT22;6367;52.508;13.284;2023-06-24T01:11:57;20.90;99.90
12604;DHT22;6367;52.508;13.284;2023-06-24T01:14:23;20.90;99.90
12604;DHT22;6367;52.508;13.284;2023-06-24T01:17:15;20.90;99.90
12604;DHT22;6367;52.508;13.284;2023-06-24T01:20:11;21.00;99.90
12604;DHT22;6367;52.508;13.284;2023-06-24T01:31:06;20.90;99.90
12604;DHT22;6367;52.508;13.284;2023-06-24T01:33:58;20.90;99.90
12604;DHT22;6367;52.508;13.284;2023-06-24T01:36:28;20.90;99.90
12604;DHT22;6367;52.508;13.284;2023-06-24T01:39:02;20.90;99.90
12604;DHT22;6367;52.508;13.284;2023-06-24T01:41:34;20.90;99.90
12604;DHT22;6367;52.508;13.284;2023-06-24T01:44:01;20.90;99.90
12604;DHT22;6367;52.508;13.284;2023-06-24T01:46:29;20.90;99.90
12604;DHT22;6367;52.508;13.284;2023-06-24T01:48:59;20.90;99.90
12604;DHT22;6367;52.508;13.284;2023-06-24T01:51:28;20.90;99.90
12604;DHT22;6367;52.508;13.284;2023-06-24T01:54:01;20.90;99.90
12604;DHT22;6367;52.508;13.284;2023-06-24T01:56:28;20.80;99.90
12604;DHT22;6367;52.508;13.284;2023-06-24T01:58:56;20.80;99.90
12604;DHT22;6367;52.508;13.284;2023-06-24T02:01:24;20.70;99.90
12604;DHT22;6367;52.508;13.284;2023-06-24T02:03:50;20.70;99.90
12604;DHT22;6367;52.508;13.284;2023-06-24T02:06:19;20.60;99.90
12604;DHT22;6367;52.508;13.284;2023-06-24T02:08:45;20.60;99.90
12604;DHT22;6367;52.508;13.284;2023-06-24T02:11:13;20.50;99.90
12604;DHT22;6367;52.508;13.284;2023-06-24T02:13:40;20.50;99.90
12604;DHT22;6367;52.508;13.284;2023-06-24T02:16:08;20.40;99.90
12604;DHT22;6367;52.508;13.284;2023-06-24T02:18:37;20.40;99.90
12604;DHT22;6367;52.508;13.284;2023-06-24T02:21:04;20.50;99.90
12604;DHT22;6367;52.508;13.284;2023-06-24T02:23:31;20.50;99.90
12604;DHT22;6367;52.508;13.284;2023-06-24T02:25:57;20.40;99.90
12604;DHT22;6367;52.508;13.284;2023-06-24T02:28:23;20.40;99.90
12604;DHT22;6367;52.508;13.284;2023-06-24T02:30:50;20.20;99.90
12604;DHT22;6367;52.508;13.284;2023-06-24T02:33:17;20.20;99.90
12604;DHT22;6367;52.508;13.284;2023-06-24T02:35:43;20.20;99.90
12604;DHT22;6367;52.508;13.284;2023-06-24T02:38:10;20.10;99.90
12604;DHT22;6367;52.508;13.284;2023-06-24T02:40:36;20.10;99.90
12604;DHT22;6367;52.508;13.284;2023-06-24T02:43:02;20.10;99.90
12604;DHT22;6367;52.508;13.284;2023-06-24T02:45:28;20.10;99.90
12604;DHT22;6367;52.508;13.284;2023-06-24T02:47:55;20.10;99.90
12604;DHT22;6367;52.508;13.284;2023-06-24T02:50:21;19.80;99.90
12604;DHT22;6367;52.508;13.284;2023-06-24T02:52:48;19.90;99.90
12604;DHT22;6367;52.508;13.284;2023-06-24T02:55:14;19.80;99.90
12604;DHT22;6367;52.508;13.284;2023-06-24T02:57:40;19.80;99.90
12604;DHT22;6367;52.508;13.284;2023-06-24T03:00:07;19.90;99.90
12604;DHT22;6367;52.508;13.284;2023-06-24T03:02:41;19.80;99.90
12604;DHT22;6367;52.508;13.284;2023-06-24T03:05:09;19.90;99.90
12604;DHT22;6367;52.508;13.284;2023-06-24T03:07:37;19.90;99.90
12604;DHT22;6367;52.508;13.284;2023-06-24T03:10:03;19.80;99.90
12604;DHT22;6367;52.508;13.284;2023-06-24T03:12:31;19.70;99.90
12604;DHT22;6367;52.508;13.284;2023-06-24T03:14:56;19.60;99.90
12604;DHT22;6367;52.508;13.284;2023-06-24T03:17:22;19.60;99.90
12604;DHT22;6367;52.508;13.284;2023-06-24T03:19:48;19.60;99.90
12604;DHT22;6367;52.508;13.284;2023-06-24T03:22:13;19.70;99.90
12604;DHT22;6367;52.508;13.284;2023-06-24T03:24:39;19.70;99.90
12604;DHT22;6367;52.508;13.284;2023-06-24T03:27:05;19.60;99.90
12604;DHT22;6367;52.508;13.284;2023-06-24T03:29:30;19.70;99.90
12604;DHT22;6367;52.508;13.284;2023-06-24T03:31:56;19.70;99.90
12604;DHT22;6367;52.508;13.284;2023-06-24T03:34:21;19.70;99.90
12604;DHT22;6367;52.508;13.284;2023-06-24T03:36:47;19.60;99.90
12604;DHT22;6367;52.508;13.284;2023-06-24T03:39:13;19.40;99.90
12604;DHT22;6367;52.508;13.284;2023-06-24T03:41:38;19.50;99.90
12604;DHT22;6367;52.508;13.284;2023-06-24T03:44:04;19.30;99.90
12604;DHT22;6367;52.508;13.284;2023-06-24T03:46:30;19.30;99.90
12604;DHT22;6367;52.508;13.284;2023-06-24T03:48:58;19.20;99.90
12604;DHT22;6367;52.508;13.284;2023-06-24T03:51:25;19.30;99.90
12604;DHT22;6367;52.508;13.284;2023-06-24T03:53:51;19.20;99.90
12604;DHT22;6367;52.508;13.284;2023-06-24T03:56:17;19.30;99.90
12604;DHT22;6367;52.508;13.284;2023-06-24T03:58:42;19.40;99.90
12604;DHT22;6367;52.508;13.284;2023-06-24T04:01:08;19.40;99.90
12604;DHT22;6367;52.508;13.284;2023-06-24T04:03:34;19.40;99.90
12604;DHT22;6367;52.508;13.284;2023-06-24T04:06:00;19.40;99.90
12604;DHT22;6367;52.508;13.284;2023-06-24T04:08:27;19.20;99.90
12604;DHT22;6367;52.508;13.284;2023-06-24T04:10:56;19.20;99.90
12604;DHT22;6367;52.508;13.284;2023-06-24T04:13:22;19.30;99.90
12604;DHT22;6367;52.508;13.284;2023-06-24T04:15:48;19.30;99.90
12604;DHT22;6367;52.508;13.284;2023-06-24T04:18:13;19.30;99.90
12604;DHT22;6367;52.508;13.284;2023-06-24T04:20:39;19.20;99.90
12604;DHT22;6367;52.508;13.284;2023-06-24T04:23:05;19.30;99.90
12604;DHT22;6367;52.508;13.284;2023-06-24T04:25:31;19.30;99.90
12604;DHT22;6367;52.508;13.284;2023-06-24T04:27:57;19.40;99.90
12604;DHT22;6367;52.508;13.284;2023-06-24T04:30:23;19.40;99.90
12604;DHT22;6367;52.508;13.284;2023-06-24T04:32:48;19.40;99.90
12604;DHT22;6367;52.508;13.284;2023-06-24T04:35:14;19.30;99.90
12604;DHT22;6367;52.508;13.284;2023-06-24T04:37:39;19.30;99.90
12604;DHT22;6367;52.508;13.284;2023-06-24T04:40:05;19.20;99.90
12604;DHT22;6367;52.508;13.284;2023-06-24T04:42:31;19.30;99.90
12604;DHT22;6367;52.508;13.284;2023-06-24T04:44:57;19.30;99.90
12604;DHT22;6367;52.508;13.284;2023-06-24T04:47:22;19.30;99.90
12604;DHT22;6367;52.508;13.284;2023-06-24T04:49:48;19.40;99.90
12604;DHT22;6367;52.508;13.284;2023-06-24T04:52:14;19.50;99.90
12604;DHT22;6367;52.508;13.284;2023-06-24T04:54:40;19.40;99.90
12604;DHT22;6367;52.508;13.284;2023-06-24T04:57:09;19.50;99.90
12604;DHT22;6367;52.508;13.284;2023-06-24T04:59:35;19.60;99.90
12604;DHT22;6367;52.508;13.284;2023-06-24T05:02:01;19.60;99.90
12604;DHT22;6367;52.508;13.284;2023-06-24T05:04:27;19.50;99.90
12604;DHT22;6367;52.508;13.284;2023-06-24T05:06:52;19.60;99.90
12604;DHT22;6367;52.508;13.284;2023-06-24T05:09:18;19.60;99.90
12604;DHT22;6367;52.508;13.284;2023-06-24T05:11:44;19.80;99.90
12604;DHT22;6367;52.508;13.284;2023-06-24T05:14:09;19.80;99.90
12604;DHT22;6367;52.508;13.284;2023-06-24T05:16:35;19.80;99.90
12604;DHT22;6367;52.508;13.284;2023-06-24T05:19:01;19.70;99.90
12604;DHT22;6367;52.508;13.284;2023-06-24T05:21:26;19.70;99.90
12604;DHT22;6367;52.508;13.284;2023-06-24T05:23:52;19.80;99.90
12604;DHT22;6367;52.508;13.284;2023-06-24T05:26:18;19.70;99.90
12604;DHT22;6367;52.508;13.284;2023-06-24T05:28:43;19.80;99.90
12604;DHT22;6367;52.508;13.284;2023-06-24T05:31:09;19.90;99.90
12604;DHT22;6367;52.508;13.284;2023-06-24T05:33:34;19.90;99.90
12604;DHT22;6367;52.508;13.284;2023-06-24T05:36:00;20.00;99.90
12604;DHT22;6367;52.508;13.284;2023-06-24T05:38:26;20.10;99.90
12604;DHT22;6367;52.508;13.284;2023-06-24T05:40:51;20.00;99.90
12604;DHT22;6367;52.508;13.284;2023-06-24T05:43:17;20.10;99.90
12604;DHT22;6367;52.508;13.284;2023-06-24T05:45:42;20.00;99.90
12604;DHT22;6367;52.508;13.284;2023-06-24T05:48:08;20.10;99.90
12604;DHT22;6367;52.508;13.284;2023-06-24T05:50:34;20.20;99.90
12604;DHT22;6367;52.508;13.284;2023-06-24T05:53:00;20.10;99.90
12604;DHT22;6367;52.508;13.284;2023-06-24T05:55:25;20.20;99.90
12604;DHT22;6367;52.508;13.284;2023-06-24T05:57:51;20.20;99.90
12604;DHT22;6367;52.508;13.284;2023-06-24T06:00:18;20.20;99.90
12604;DHT22;6367;52.508;13.284;2023-06-24T06:02:43;20.30;99.90
12604;DHT22;6367;52.508;13.284;2023-06-24T06:05:09;20.30;99.90
12604;DHT22;6367;52.508;13.284;2023-06-24T06:07:35;20.40;99.90
12604;DHT22;6367;52.508;13.284;2023-06-24T06:10:03;20.30;99.90
12604;DHT22;6367;52.508;13.284;2023-06-24T06:12:29;20.40;99.90
12604;DHT22;6367;52.508;13.284;2023-06-24T06:14:54;20.50;99.90
12604;DHT22;6367;52.508;13.284;2023-06-24T06:17:20;20.60;99.90
12604;DHT22;6367;52.508;13.284;2023-06-24T06:19:46;20.80;99.90
12604;DHT22;6367;52.508;13.284;2023-06-24T06:22:12;20.80;99.90
12604;DHT22;6367;52.508;13.284;2023-06-24T06:24:39;20.80;99.90
12604;DHT22;6367;52.508;13.284;2023-06-24T06:27:08;20.90;99.90
12604;DHT22;6367;52.508;13.284;2023-06-24T06:29:34;21.00;99.90
12604;DHT22;6367;52.508;13.284;2023-06-24T06:32:00;21.10;99.90
12604;DHT22;6367;52.508;13.284;2023-06-24T06:34:25;21.30;99.90
12604;DHT22;6367;52.508;13.284;2023-06-24T06:36:51;21.30;99.90
12604;DHT22;6367;52.508;13.284;2023-06-24T06:39:17;21.30;99.90
12604;DHT22;6367;52.508;13.284;2023-06-24T06:41:43;21.50;99.90
12604;DHT22;6367;52.508;13.284;2023-06-24T06:44:08;21.70;99.90
12604;DHT22;6367;52.508;13.284;2023-06-24T06:46:34;21.70;99.90
12604;DHT22;6367;52.508;13.284;2023-06-24T06:48:59;21.80;99.90
12604;DHT22;6367;52.508;13.284;2023-06-24T06:51:25;21.70;99.90
12604;DHT22;6367;52.508;13.284;2023-06-24T06:53:51;21.90;99.90
12604;DHT22;6367;52.508;13.284;2023-06-24T06:56:27;21.50;99.90
12604;DHT22;6367;52.508;13.284;2023-06-24T06:58:54;22.20;99.90
12604;DHT22;6367;52.508;13.284;2023-06-24T07:01:20;22.40;99.90
12604;DHT22;6367;52.508;13.284;2023-06-24T07:03:45;22.70;99.90
12604;DHT22;6367;52.508;13.284;2023-06-24T07:06:11;23.00;99.90
12604;DHT22;6367;52.508;13.284;2023-06-24T07:08:37;23.30;99.90
12604;DHT22;6367;52.508;13.284;2023-06-24T07:11:03;23.50;99.90
12604;DHT22;6367;52.508;13.284;2023-06-24T07:13:31;23.70;99.90
12604;DHT22;6367;52.508;13.284;2023-06-24T07:15:57;24.00;99.90
12604;DHT22;6367;52.508;13.284;2023-06-24T07:18:23;23.90;99.90
12604;DHT22;6367;52.508;13.284;2023-06-24T07:20:49;24.00;99.90
12604;DHT22;6367;52.508;13.284;2023-06-24T07:23:14;24.00;99.90
12604;DHT22;6367;52.508;13.284;2023-06-24T07:25:40;24.00;99.90
12604;DHT22;6367;52.508;13.284;2023-06-24T07:28:05;24.00;99.90
12604;DHT22;6367;52.508;13.284;2023-06-24T07:30:31;24.20;99.90
12604;DHT22;6367;52.508;13.284;2023-06-24T07:32:57;24.10;99.90
12604;DHT22;6367;52.508;13.284;2023-06-24T07:35:22;24.20;99.90
12604;DHT22;6367;52.508;13.284;2023-06-24T07:37:49;23.90;99.90
12604;DHT22;6367;52.508;13.284;2023-06-24T07:40:14;23.90;99.90
12604;DHT22;6367;52.508;13.284;2023-06-24T07:42:41;23.80;99.90
12604;DHT22;6367;52.508;13.284;2023-06-24T07:45:07;23.90;99.90
12604;DHT22;6367;52.508;13.284;2023-06-24T07:47:32;22.90;99.90
12604;DHT22;6367;52.508;13.284;2023-06-24T07:49:58;23.90;99.90
12604;DHT22;6367;52.508;13.284;2023-06-24T07:52:24;23.80;99.90
12604;DHT22;6367;52.508;13.284;2023-06-24T07:54:49;23.90;99.90
12604;DHT22;6367;52.508;13.284;2023-06-24T07:57:15;23.90;99.90
12604;DHT22;6367;52.508;13.284;2023-06-24T07:59:42;23.80;99.90
12604;DHT22;6367;52.508;13.284;2023-06-24T08:02:07;23.70;99.90
12604;DHT22;6367;52.508;13.284;2023-06-24T08:04:33;23.70;99.90
12604;DHT22;6367;52.508;13.284;2023-06-24T08:06:58;23.70;99.90
12604;DHT22;6367;52.508;13.284;2023-06-24T08:09:24;23.70;99.90
12604;DHT22;6367;52.508;13.284;2023-06-24T08:11:50;23.70;99.90
12604;DHT22;6367;52.508;13.284;2023-06-24T08:14:15;23.70;99.90
12604;DHT22;6367;52.508;13.284;2023-06-24T08:16:41;23.60;99.90
12604;DHT22;6367;52.508;13.284;2023-06-24T08:19:07;23.60;99.90
12604;DHT22;6367;52.508;13.284;2023-06-24T08:21:32;23.50;99.90
12604;DHT22;6367;52.508;13.284;2023-06-24T08:23:59;23.60;99.90
12604;DHT22;6367;52.508;13.284;2023-06-24T08:26:25;23.70;99.90
12604;DHT22;6367;52.508;13.284;2023-06-24T08:32:32;23.80;99.90
12604;DHT22;6367;52.508;13.284;2023-06-24T08:34:57;23.90;99.90
12604;DHT22;6367;52.508;13.284;2023-06-24T08:37:23;24.10;99.90
12604;DHT22;6367;52.508;13.284;2023-06-24T08:39:48;24.00;99.90
12604;DHT22;6367;52.508;13.284;2023-06-24T08:42:14;23.90;99.90
12604;DHT22;6367;52.508;13.284;2023-06-24T08:44:40;23.80;99.90
12604;DHT22;6367;52.508;13.284;2023-06-24T08:47:06;23.70;99.90
12604;DHT22;6367;52.508;13.284;2023-06-24T08:49:32;23.80;99.90
12604;DHT22;6367;52.508;13.284;2023-06-24T08:52:10;23.90;99.90
12604;DHT22;6367;52.508;13.284;2023-06-24T08:54:38;24.00;99.90
12604;DHT22;6367;52.508;13.284;2023-06-24T08:57:06;24.20;99.90
12604;DHT22;6367;52.508;13.284;2023-06-24T08:59:36;24.20;99.90
12604;DHT22;6367;52.508;13.284;2023-06-24T09:02:03;24.20;99.90
12604;DHT22;6367;52.508;13.284;2023-06-24T09:04:28;24.20;99.90
12604;DHT22;6367;52.508;13.284;2023-06-24T09:06:54;24.20;99.90
12604;DHT22;6367;52.508;13.284;2023-06-24T09:09:21;23.70;99.90
12604;DHT22;6367;52.508;13.284;2023-06-24T09:11:57;24.20;99.90
12604;DHT22;6367;52.508;13.284;2023-06-24T09:14:24;24.40;99.90
12604;DHT22;6367;52.508;13.284;2023-06-24T09:17:00;24.40;99.70
12604;DHT22;6367;52.508;13.284;2023-06-24T09:19:32;24.30;99.30
12604;DHT22;6367;52.508;13.284;2023-06-24T09:22:08;24.30;99.80
12604;DHT22;6367;52.508;13.284;2023-06-24T09:24:41;24.30;99.40
12604;DHT22;6367;52.508;13.284;2023-06-24T09:27:07;24.40;98.80
12604;DHT22;6367;52.508;13.284;2023-06-24T09:29:34;24.50;99.50
12604;DHT22;6367;52.508;13.284;2023-06-24T09:32:04;24.70;99.30
12604;DHT22;6367;52.508;13.284;2023-06-24T09:34:31;24.80;98.10
12604;DHT22;6367;52.508;13.284;2023-06-24T09:36:57;24.70;98.00
12604;DHT22;6367;52.508;13.284;2023-06-24T09:39:24;24.70;98.40
12604;DHT22;6367;52.508;13.284;2023-06-24T09:41:57;24.80;98.60
12604;DHT22;6367;52.508;13.284;2023-06-24T09:44:23;24.90;97.80
12604;DHT22;6367;52.508;13.284;2023-06-24T09:46:49;24.90;98.10
12604;DHT22;6367;52.508;13.284;2023-06-24T09:49:15;25.00;97.90
12604;DHT22;6367;52.508;13.284;2023-06-24T09:51:44;25.00;96.90
12604;DHT22;6367;52.508;13.284;2023-06-24T09:54:12;25.10;97.10
12604;DHT22;6367;52.508;13.284;2023-06-24T09:56:49;25.10;97.10
12604;DHT22;6367;52.508;13.284;2023-06-24T09:59:18;25.20;96.50
12604;DHT22;6367;52.508;13.284;2023-06-24T10:01:52;25.20;96.60
12604;DHT22;6367;52.508;13.284;2023-06-24T10:04:20;25.30;97.30
12604;DHT22;6367;52.508;13.284;2023-06-24T10:06:47;25.40;97.40
12604;DHT22;6367;52.508;13.284;2023-06-24T10:09:13;25.50;96.60
12604;DHT22;6367;52.508;13.284;2023-06-24T10:11:43;25.40;96.30
12604;DHT22;6367;52.508;13.284;2023-06-24T10:14:09;25.40;96.40
12604;DHT22;6367;52.508;13.284;2023-06-24T10:16:34;25.40;96.30
12604;DHT22;6367;52.508;13.284;2023-06-24T10:19:01;25.50;96.00
12604;DHT22;6367;52.508;13.284;2023-06-24T10:21:46;25.50;96.20
12604;DHT22;6367;52.508;13.284;2023-06-24T10:24:13;25.50;96.10
12604;DHT22;6367;52.508;13.284;2023-06-24T10:26:40;25.60;96.20
12604;DHT22;6367;52.508;13.284;2023-06-24T10:44:55;25.70;94.40
12604;DHT22;6367;52.508;13.284;2023-06-24T10:47:28;25.70;95.10
12604;DHT22;6367;52.508;13.284;2023-06-24T10:49:54;25.70;95.10
12604;DHT22;6367;52.508;13.284;2023-06-24T10:52:21;25.80;95.40
12604;DHT22;6367;52.508;13.284;2023-06-24T10:54:48;25.80;95.20
12604;DHT22;6367;52.508;13.284;2023-06-24T10:57:14;25.90;95.20
12604;DHT22;6367;52.508;13.284;2023-06-24T10:59:41;26.00;95.00
12604;DHT22;6367;52.508;13.284;2023-06-24T11:02:14;26.10;95.20
12604;DHT22;6367;52.508;13.284;2023-06-24T11:04:47;26.10;94.80
12604;DHT22;6367;52.508;13.284;2023-06-24T11:07:13;26.20;94.50
12604;DHT22;6367;52.508;13.284;2023-06-24T11:09:47;26.20;93.90
12604;DHT22;6367;52.508;13.284;2023-06-24T11:12:13;26.30;93.70
12604;DHT22;6367;52.508;13.284;2023-06-24T11:14:39;26.30;93.50
12604;DHT22;6367;52.508;13.284;2023-06-24T11:17:05;26.50;93.30
12604;DHT22;6367;52.508;13.284;2023-06-24T11:19:31;26.40;92.30
12604;DHT22;6367;52.508;13.284;2023-06-24T11:22:01;26.30;93.10
12604;DHT22;6367;52.508;13.284;2023-06-24T11:24:30;26.50;93.20
12604;DHT22;6367;52.508;13.284;2023-06-24T11:26:56;26.50;93.40
12604;DHT22;6367;52.508;13.284;2023-06-24T11:29:28;26.60;93.00
12604;DHT22;6367;52.508;13.284;2023-06-24T11:31:54;26.70;91.90
12604;DHT22;6367;52.508;13.284;2023-06-24T11:34:20;26.60;91.70
12604;DHT22;6367;52.508;13.284;2023-06-24T11:36:47;26.60;91.60
12604;DHT22;6367;52.508;13.284;2023-06-24T11:39:25;26.70;91.70
12604;DHT22;6367;52.508;13.284;2023-06-24T11:41:51;26.60;90.20
12604;DHT22;6367;52.508;13.284;2023-06-24T11:44:21;26.70;91.30
12604;DHT22;6367;52.508;13.284;2023-06-24T11:46:49;26.80;91.60
12604;DHT22;6367;52.508;13.284;2023-06-24T11:49:14;26.80;91.90
12604;DHT22;6367;52.508;13.284;2023-06-24T11:51:50;26.90;90.80
12604;DHT22;6367;52.508;13.284;2023-06-24T11:54:19;26.90;91.80
12604;DHT22;6367;52.508;13.284;2023-06-24T11:56:50;27.00;91.30
12604;DHT22;6367;52.508;13.284;2023-06-24T11:59:25;27.10;91.30
12604;DHT22;6367;52.508;13.284;2023-06-24T12:01:56;27.40;90.70
12604;DHT22;6367;52.508;13.284;2023-06-24T12:04:28;27.40;90.00
12604;DHT22;6367;52.508;13.284;2023-06-24T12:06:54;27.40;90.40
12604;DHT22;6367;52.508;13.284;2023-06-24T12:09:20;27.50;90.20
12604;DHT22;6367;52.508;13.284;2023-06-24T12:11:47;27.40;89.10
12604;DHT22;6367;52.508;13.284;2023-06-24T12:14:12;27.50;89.80
12604;DHT22;6367;52.508;13.284;2023-06-24T12:16:39;27.60;90.00
12604;DHT22;6367;52.508;13.284;2023-06-24T12:19:06;27.70;89.90
12604;DHT22;6367;52.508;13.284;2023-06-24T12:21:32;27.90;89.40
12604;DHT22;6367;52.508;13.284;2023-06-24T12:23:57;27.90;89.10
12604;DHT22;6367;52.508;13.284;2023-06-24T12:26:23;27.90;88.40
12604;DHT22;6367;52.508;13.284;2023-06-24T12:28:49;27.90;88.10
12604;DHT22;6367;52.508;13.284;2023-06-24T12:31:14;28.00;88.50
12604;DHT22;6367;52.508;13.284;2023-06-24T12:33:40;28.00;89.00
12604;DHT22;6367;52.508;13.284;2023-06-24T12:36:06;28.10;88.90
12604;DHT22;6367;52.508;13.284;2023-06-24T12:38:31;28.20;88.50
12604;DHT22;6367;52.508;13.284;2023-06-24T12:40:57;28.10;88.10
12604;DHT22;6367;52.508;13.284;2023-06-24T12:43:23;28.10;88.70
12604;DHT22;6367;52.508;13.284;2023-06-24T12:45:49;28.10;88.50
12604;DHT22;6367;52.508;13.284;2023-06-24T12:48:16;28.00;88.80
12604;DHT22;6367;52.508;13.284;2023-06-24T12:50:42;28.10;89.50
12604;DHT22;6367;52.508;13.284;2023-06-24T12:53:08;28.10;89.10
12604;DHT22;6367;52.508;13.284;2023-06-24T12:55:36;28.10;89.30
12604;DHT22;6367;52.508;13.284;2023-06-24T12:58:02;28.20;88.60
12604;DHT22;6367;52.508;13.284;2023-06-24T13:00:28;28.20;88.40
12604;DHT22;6367;52.508;13.284;2023-06-24T13:02:53;28.10;87.80
12604;DHT22;6367;52.508;13.284;2023-06-24T13:05:19;28.10;88.50
12604;DHT22;6367;52.508;13.284;2023-06-24T13:07:45;28.20;87.40
12604;DHT22;6367;52.508;13.284;2023-06-24T13:10:11;28.20;87.30
12604;DHT22;6367;52.508;13.284;2023-06-24T13:12:37;28.10;88.10
12604;DHT22;6367;52.508;13.284;2023-06-24T13:15:06;28.10;87.30
12604;DHT22;6367;52.508;13.284;2023-06-24T13:17:32;28.10;86.40
12604;DHT22;6367;52.508;13.284;2023-06-24T13:19:58;28.10;86.10
12604;DHT22;6367;52.508;13.284;2023-06-24T13:22:24;28.00;86.20
12604;DHT22;6367;52.508;13.284;2023-06-24T13:24:49;28.00;86.60
12604;DHT22;6367;52.508;13.284;2023-06-24T13:27:16;28.10;86.70
12604;DHT22;6367;52.508;13.284;2023-06-24T13:29:42;28.10;86.50
12604;DHT22;6367;52.508;13.284;2023-06-24T13:32:08;28.20;86.90
12604;DHT22;6367;52.508;13.284;2023-06-24T13:34:34;28.30;86.90
12604;DHT22;6367;52.508;13.284;2023-06-24T13:37:00;28.30;86.40
12604;DHT22;6367;52.508;13.284;2023-06-24T13:39:25;28.20;85.70
12604;DHT22;6367;52.508;13.284;2023-06-24T13:41:53;28.10;86.00
12604;DHT22;6367;52.508;13.284;2023-06-24T13:44:18;28.10;86.40
12604;DHT22;6367;52.508;13.284;2023-06-24T13:46:44;28.10;86.50
12604;DHT22;6367;52.508;13.284;2023-06-24T13:49:10;28.10;86.00
12604;DHT22;6367;52.508;13.284;2023-06-24T13:51:36;28.10;84.60
12604;DHT22;6367;52.508;13.284;2023-06-24T13:54:03;28.10;85.00
12604;DHT22;6367;52.508;13.284;2023-06-24T13:56:29;28.00;83.70
12604;DHT22;6367;52.508;13.284;2023-06-24T13:58:55;28.10;85.20
12604;DHT22;6367;52.508;13.284;2023-06-24T14:01:21;28.10;84.80
12604;DHT22;6367;52.508;13.284;2023-06-24T14:03:47;28.10;84.30
12604;DHT22;6367;52.508;13.284;2023-06-24T14:06:17;28.20;84.40
12604;DHT22;6367;52.508;13.284;2023-06-24T14:08:44;28.20;84.20
12604;DHT22;6367;52.508;13.284;2023-06-24T14:11:10;28.20;83.90
12604;DHT22;6367;52.508;13.284;2023-06-24T14:13:36;28.20;84.10
12604;DHT22;6367;52.508;13.284;2023-06-24T14:16:03;28.20;84.00
12604;DHT22;6367;52.508;13.284;2023-06-24T14:18:29;28.20;84.80
12604;DHT22;6367;52.508;13.284;2023-06-24T14:20:59;28.20;84.40
12604;DHT22;6367;52.508;13.284;2023-06-24T14:23:25;28.20;83.90
12604;DHT22;6367;52.508;13.284;2023-06-24T14:25:51;28.20;83.10
12604;DHT22;6367;52.508;13.284;2023-06-24T14:28:17;28.10;82.70
12604;DHT22;6367;52.508;13.284;2023-06-24T14:30:43;28.10;83.70
12604;DHT22;6367;52.508;13.284;2023-06-24T14:33:09;28.10;84.20
12604;DHT22;6367;52.508;13.284;2023-06-24T14:35:35;28.10;84.50
12604;DHT22;6367;52.508;13.284;2023-06-24T14:38:01;28.10;83.60
12604;DHT22;6367;52.508;13.284;2023-06-24T14:40:26;28.00;83.70
12604;DHT22;6367;52.508;13.284;2023-06-24T14:42:52;28.10;83.20
12604;DHT22;6367;52.508;13.284;2023-06-24T14:45:18;28.10;83.30
12604;DHT22;6367;52.508;13.284;2023-06-24T14:47:44;28.00;83.70
12604;DHT22;6367;52.508;13.284;2023-06-24T14:50:10;28.00;83.60
12604;DHT22;6367;52.508;13.284;2023-06-24T14:52:35;28.00;83.10
12604;DHT22;6367;52.508;13.284;2023-06-24T14:55:01;28.00;83.10
12604;DHT22;6367;52.508;13.284;2023-06-24T14:57:27;28.10;82.60
12604;DHT22;6367;52.508;13.284;2023-06-24T14:59:52;27.90;83.20
12604;DHT22;6367;52.508;13.284;2023-06-24T15:02:18;28.00;82.90
12604;DHT22;6367;52.508;13.284;2023-06-24T15:04:45;27.90;83.40
12604;DHT22;6367;52.508;13.284;2023-06-24T15:07:10;27.80;84.10
12604;DHT22;6367;52.508;13.284;2023-06-24T15:09:36;27.80;83.80
12604;DHT22;6367;52.508;13.284;2023-06-24T15:12:02;27.80;85.30
12604;DHT22;6367;52.508;13.284;2023-06-24T15:14:27;27.80;83.80
12604;DHT22;6367;52.508;13.284;2023-06-24T15:16:53;27.80;84.30
12604;DHT22;6367;52.508;13.284;2023-06-24T15:19:20;27.80;85.00
12604;DHT22;6367;52.508;13.284;2023-06-24T15:21:45;27.70;84.20
12604;DHT22;6367;52.508;13.284;2023-06-24T15:24:11;27.60;84.60
12604;DHT22;6367;52.508;13.284;2023-06-24T15:26:37;27.60;84.50
12604;DHT22;6367;52.508;13.284;2023-06-24T15:29:02;27.60;84.10
12604;DHT22;6367;52.508;13.284;2023-06-24T15:31:28;27.60;83.30
12604;DHT22;6367;52.508;13.284;2023-06-24T15:33:54;27.60;83.90
12604;DHT22;6367;52.508;13.284;2023-06-24T15:36:21;27.60;84.00
12604;DHT22;6367;52.508;13.284;2023-06-24T15:38:47;27.50;84.10
12604;DHT22;6367;52.508;13.284;2023-06-24T15:41:13;27.40;84.30
12604;DHT22;6367;52.508;13.284;2023-06-24T15:43:40;27.40;84.10
12604;DHT22;6367;52.508;13.284;2023-06-24T15:46:06;27.40;84.20
12604;DHT22;6367;52.508;13.284;2023-06-24T15:48:31;27.30;85.00
12604;DHT22;6367;52.508;13.284;2023-06-24T15:50:57;27.40;84.90
12604;DHT22;6367;52.508;13.284;2023-06-24T15:53:25;27.30;85.30
12604;DHT22;6367;52.508;13.284;2023-06-24T15:55:50;27.40;85.20